sensor_id;sensor_type;location;lat;lon;timestamp;P1;durP1;ratioP1;P2;durP2;ratioP2
29120;SDS011;16191;49.548;8.658;2022-12-07T00:01:45;13.40;;;9.07;;
29120;SDS011;16191;49.548;8.658;2022-12-07T00:04:14;14.35;;;8.55;;
29120;SDS011;16191;49.548;8.658;2022-12-07T00:06:44;17.20;;;8.80;;
29120;SDS011;16191;49.548;8.658;2022-12-07T00:09:13;14.60;;;9.32;;
29120;SDS011;16191;49.548;8.658;2022-12-07T00:11:41;13.68;;;8.75;;
29120;SDS011;16191;49.548;8.658;2022-12-07T00:14:10;15.15;;;9.18;;
29120;SDS011;16191;49.548;8.658;2022-12-07T00:16:40;13.57;;;7.82;;
29120;SDS011;16191;49.548;8.658;2022-12-07T00:19:06;16.23;;;8.45;;
29120;SDS011;16191;49.548;8.658;2022-12-07T00:21:34;14.52;;;7.93;;
29120;SDS011;16191;49.548;8.658;2022-12-07T00:24:03;13.73;;;8.73;;
29120;SDS011;16191;49.548;8.658;2022-12-07T00:26:32;12.50;;;7.68;;
29120;SDS011;16191;49.548;8.658;2022-12-07T00:29:04;15.25;;;8.60;;
29120;SDS011;16191;49.548;8.658;2022-12-07T00:34:06;12.45;;;8.30;;
29120;SDS011;16191;49.548;8.658;2022-12-07T00:36:33;13.50;;;8.30;;
29120;SDS011;16191;49.548;8.658;2022-12-07T00:39:00;12.80;;;8.40;;
29120;SDS011;16191;49.548;8.658;2022-12-07T00:41:46;12.45;;;7.70;;
29120;SDS011;16191;49.548;8.658;2022-12-07T00:44:13;13.68;;;8.55;;
29120;SDS011;16191;49.548;8.658;2022-12-07T00:46:39;12.55;;;8.10;;
29120;SDS011;16191;49.548;8.658;2022-12-07T00:49:06;14.02;;;8.73;;
29120;SDS011;16191;49.548;8.658;2022-12-07T00:51:54;12.80;;;8.25;;
29120;SDS011;16191;49.548;8.658;2022-12-07T00:54:21;16.17;;;8.93;;
29120;SDS011;16191;49.548;8.658;2022-12-07T00:56:48;11.90;;;7.88;;
29120;SDS011;16191;49.548;8.658;2022-12-07T00:59:14;13.93;;;7.95;;
29120;SDS011;16191;49.548;8.658;2022-12-07T01:01:41;12.63;;;8.43;;
29120;SDS011;16191;49.548;8.658;2022-12-07T01:04:08;11.77;;;8.27;;
29120;SDS011;16191;49.548;8.658;2022-12-07T01:06:35;15.45;;;8.10;;
29120;SDS011;16191;49.548;8.658;2022-12-07T01:09:02;14.38;;;8.23;;
29120;SDS011;16191;49.548;8.658;2022-12-07T01:11:31;14.20;;;8.23;;
29120;SDS011;16191;49.548;8.658;2022-12-07T01:13:58;13.55;;;8.38;;
29120;SDS011;16191;49.548;8.658;2022-12-07T01:16:30;13.68;;;8.38;;
29120;SDS011;16191;49.548;8.658;2022-12-07T01:18:59;14.45;;;8.18;;
29120;SDS011;16191;49.548;8.658;2022-12-07T01:21:27;15.73;;;8.90;;
29120;SDS011;16191;49.548;8.658;2022-12-07T01:23:59;15.32;;;7.90;;
29120;SDS011;16191;49.548;8.658;2022-12-07T01:26:25;15.25;;;8.75;;
29120;SDS011;16191;49.548;8.658;2022-12-07T01:28:52;15.02;;;8.07;;
29120;SDS011;16191;49.548;8.658;2022-12-07T01:31:21;12.30;;;7.78;;
29120;SDS011;16191;49.548;8.658;2022-12-07T01:33:51;14.00;;;8.38;;
29120;SDS011;16191;49.548;8.658;2022-12-07T01:36:20;12.98;;;8.35;;
29120;SDS011;16191;49.548;8.658;2022-12-07T01:39:14;18.25;;;8.82;;
29120;SDS011;16191;49.548;8.658;2022-12-07T01:42:01;13.05;;;7.85;;
29120;SDS011;16191;49.548;8.658;2022-12-07T01:48:05;11.90;;;8.13;;
29120;SDS011;16191;49.548;8.658;2022-12-07T01:50:54;13.25;;;8.50;;
29120;SDS011;16191;49.548;8.658;2022-12-07T01:53:46;15.68;;;9.18;;
29120;SDS011;16191;49.548;8.658;2022-12-07T01:56:14;13.50;;;8.45;;
29120;SDS011;16191;49.548;8.658;2022-12-07T01:58:45;13.68;;;8.18;;
29120;SDS011;16191;49.548;8.658;2022-12-07T02:01:12;13.45;;;8.00;;
29120;SDS011;16191;49.548;8.658;2022-12-07T02:03:40;16.27;;;8.65;;
29120;SDS011;16191;49.548;8.658;2022-12-07T02:06:08;14.25;;;8.50;;
29120;SDS011;16191;49.548;8.658;2022-12-07T02:08:38;14.70;;;9.07;;
29120;SDS011;16191;49.548;8.658;2022-12-07T02:11:06;14.73;;;8.70;;
29120;SDS011;16191;49.548;8.658;2022-12-07T02:13:35;15.38;;;9.05;;
29120;SDS011;16191;49.548;8.658;2022-12-07T02:29:57;18.85;;;8.75;;
29120;SDS011;16191;49.548;8.658;2022-12-07T02:35:35;15.35;;;9.43;;
29120;SDS011;16191;49.548;8.658;2022-12-07T02:38:14;13.32;;;8.32;;
29120;SDS011;16191;49.548;8.658;2022-12-07T02:40:48;18.70;;;9.38;;
29120;SDS011;16191;49.548;8.658;2022-12-07T02:43:24;20.27;;;10.38;;
29120;SDS011;16191;49.548;8.658;2022-12-07T02:45:56;15.07;;;9.20;;
29120;SDS011;16191;49.548;8.658;2022-12-07T02:48:28;14.02;;;7.97;;
29120;SDS011;16191;49.548;8.658;2022-12-07T02:50:55;11.15;;;7.45;;
29120;SDS011;16191;49.548;8.658;2022-12-07T02:53:38;16.98;;;9.38;;
29120;SDS011;16191;49.548;8.658;2022-12-07T03:07:29;17.30;;;8.85;;
29120;SDS011;16191;49.548;8.658;2022-12-07T03:12:57;13.60;;;8.80;;
29120;SDS011;16191;49.548;8.658;2022-12-07T03:15:35;17.02;;;8.73;;
29120;SDS011;16191;49.548;8.658;2022-12-07T03:18:09;14.45;;;8.82;;
29120;SDS011;16191;49.548;8.658;2022-12-07T03:20:39;14.50;;;8.82;;
29120;SDS011;16191;49.548;8.658;2022-12-07T03:23:10;16.98;;;8.93;;
29120;SDS011;16191;49.548;8.658;2022-12-07T03:25:40;13.52;;;8.30;;
29120;SDS011;16191;49.548;8.658;2022-12-07T03:28:10;12.60;;;7.72;;
29120;SDS011;16191;49.548;8.658;2022-12-07T03:30:43;14.77;;;8.45;;
29120;SDS011;16191;49.548;8.658;2022-12-07T03:33:17;14.77;;;8.70;;
29120;SDS011;16191;49.548;8.658;2022-12-07T03:35:50;11.88;;;7.85;;
29120;SDS011;16191;49.548;8.658;2022-12-07T03:38:25;15.95;;;9.45;;
29120;SDS011;16191;49.548;8.658;2022-12-07T03:41:01;14.65;;;8.52;;
29120;SDS011;16191;49.548;8.658;2022-12-07T03:43:33;14.52;;;9.07;;
29120;SDS011;16191;49.548;8.658;2022-12-07T03:48:55;20.30;;;9.43;;
29120;SDS011;16191;49.548;8.658;2022-12-07T03:54:19;14.10;;;8.68;;
29120;SDS011;16191;49.548;8.658;2022-12-07T03:56:53;14.75;;;8.00;;
29120;SDS011;16191;49.548;8.658;2022-12-07T03:59:22;14.57;;;9.38;;
29120;SDS011;16191;49.548;8.658;2022-12-07T04:01:57;14.50;;;8.15;;
29120;SDS011;16191;49.548;8.658;2022-12-07T04:04:30;12.20;;;7.95;;
29120;SDS011;16191;49.548;8.658;2022-12-07T04:06:58;11.20;;;7.88;;
29120;SDS011;16191;49.548;8.658;2022-12-07T04:09:46;12.40;;;7.45;;
29120;SDS011;16191;49.548;8.658;2022-12-07T04:12:13;11.93;;;7.32;;
29120;SDS011;16191;49.548;8.658;2022-12-07T04:14:39;14.95;;;7.93;;
29120;SDS011;16191;49.548;8.658;2022-12-07T04:17:06;12.45;;;7.95;;
29120;SDS011;16191;49.548;8.658;2022-12-07T04:19:33;18.40;;;8.32;;
29120;SDS011;16191;49.548;8.658;2022-12-07T04:22:01;12.07;;;8.30;;
29120;SDS011;16191;49.548;8.658;2022-12-07T04:24:29;11.38;;;7.00;;
29120;SDS011;16191;49.548;8.658;2022-12-07T04:26:56;13.73;;;8.00;;
29120;SDS011;16191;49.548;8.658;2022-12-07T04:29:23;12.35;;;7.88;;
29120;SDS011;16191;49.548;8.658;2022-12-07T04:31:51;10.77;;;7.28;;
29120;SDS011;16191;49.548;8.658;2022-12-07T04:34:19;11.00;;;7.18;;
29120;SDS011;16191;49.548;8.658;2022-12-07T04:36:46;13.90;;;8.05;;
29120;SDS011;16191;49.548;8.658;2022-12-07T04:39:19;14.07;;;8.02;;
29120;SDS011;16191;49.548;8.658;2022-12-07T04:41:50;11.75;;;7.45;;
29120;SDS011;16191;49.548;8.658;2022-12-07T04:44:17;15.25;;;8.52;;
29120;SDS011;16191;49.548;8.658;2022-12-07T04:46:44;12.55;;;7.57;;
29120;SDS011;16191;49.548;8.658;2022-12-07T04:49:34;14.52;;;8.23;;
29120;SDS011;16191;49.548;8.658;2022-12-07T04:52:00;15.30;;;7.65;;
29120;SDS011;16191;49.548;8.658;2022-12-07T04:54:27;12.40;;;8.35;;
29120;SDS011;16191;49.548;8.658;2022-12-07T04:56:54;13.27;;;8.52;;
29120;SDS011;16191;49.548;8.658;2022-12-07T04:59:21;13.52;;;8.70;;
29120;SDS011;16191;49.548;8.658;2022-12-07T05:01:47;16.50;;;8.15;;
29120;SDS011;16191;49.548;8.658;2022-12-07T05:04:36;16.02;;;8.68;;
29120;SDS011;16191;49.548;8.658;2022-12-07T05:07:03;11.57;;;7.32;;
29120;SDS011;16191;49.548;8.658;2022-12-07T05:09:30;10.88;;;7.07;;
29120;SDS011;16191;49.548;8.658;2022-12-07T05:11:57;12.75;;;7.13;;
29120;SDS011;16191;49.548;8.658;2022-12-07T05:14:23;11.88;;;7.65;;
29120;SDS011;16191;49.548;8.658;2022-12-07T05:16:50;11.10;;;7.40;;
29120;SDS011;16191;49.548;8.658;2022-12-07T05:19:18;12.20;;;7.45;;
29120;SDS011;16191;49.548;8.658;2022-12-07T05:21:45;12.65;;;7.93;;
29120;SDS011;16191;49.548;8.658;2022-12-07T05:24:13;11.40;;;7.35;;
29120;SDS011;16191;49.548;8.658;2022-12-07T05:26:40;14.18;;;7.93;;
29120;SDS011;16191;49.548;8.658;2022-12-07T05:29:07;12.90;;;7.47;;
29120;SDS011;16191;49.548;8.658;2022-12-07T05:31:38;14.07;;;7.70;;
29120;SDS011;16191;49.548;8.658;2022-12-07T05:34:05;12.93;;;8.07;;
29120;SDS011;16191;49.548;8.658;2022-12-07T05:36:32;14.13;;;9.10;;
29120;SDS011;16191;49.548;8.658;2022-12-07T05:38:59;14.45;;;7.47;;
29120;SDS011;16191;49.548;8.658;2022-12-07T05:41:26;11.65;;;8.13;;
29120;SDS011;16191;49.548;8.658;2022-12-07T05:44:11;14.98;;;8.65;;
29120;SDS011;16191;49.548;8.658;2022-12-07T05:46:38;14.80;;;8.43;;
29120;SDS011;16191;49.548;8.658;2022-12-07T05:49:05;11.25;;;7.28;;
29120;SDS011;16191;49.548;8.658;2022-12-07T05:51:31;12.32;;;8.07;;
29120;SDS011;16191;49.548;8.658;2022-12-07T05:53:58;10.15;;;6.85;;
29120;SDS011;16191;49.548;8.658;2022-12-07T05:56:25;10.98;;;6.95;;
29120;SDS011;16191;49.548;8.658;2022-12-07T05:58:53;11.25;;;6.80;;
29120;SDS011;16191;49.548;8.658;2022-12-07T06:01:39;10.35;;;6.40;;
29120;SDS011;16191;49.548;8.658;2022-12-07T06:04:07;7.55;;;5.53;;
29120;SDS011;16191;49.548;8.658;2022-12-07T06:06:33;10.02;;;5.55;;
29120;SDS011;16191;49.548;8.658;2022-12-07T06:09:01;8.90;;;5.20;;
29120;SDS011;16191;49.548;8.658;2022-12-07T06:11:28;9.10;;;5.50;;
29120;SDS011;16191;49.548;8.658;2022-12-07T06:14:13;8.02;;;5.55;;
29120;SDS011;16191;49.548;8.658;2022-12-07T06:16:39;10.50;;;6.00;;
29120;SDS011;16191;49.548;8.658;2022-12-07T06:19:07;11.02;;;6.93;;
29120;SDS011;16191;49.548;8.658;2022-12-07T06:21:34;10.20;;;6.78;;
29120;SDS011;16191;49.548;8.658;2022-12-07T06:24:00;12.25;;;6.22;;
29120;SDS011;16191;49.548;8.658;2022-12-07T06:26:27;9.35;;;5.68;;
29120;SDS011;16191;49.548;8.658;2022-12-07T06:28:54;8.60;;;5.65;;
29120;SDS011;16191;49.548;8.658;2022-12-07T06:31:21;8.70;;;6.20;;
29120;SDS011;16191;49.548;8.658;2022-12-07T06:33:48;14.57;;;6.63;;
29120;SDS011;16191;49.548;8.658;2022-12-07T06:36:15;9.43;;;6.55;;
29120;SDS011;16191;49.548;8.658;2022-12-07T06:38:42;9.63;;;6.70;;
29120;SDS011;16191;49.548;8.658;2022-12-07T06:41:09;10.30;;;7.03;;
29120;SDS011;16191;49.548;8.658;2022-12-07T06:43:35;9.25;;;6.57;;
29120;SDS011;16191;49.548;8.658;2022-12-07T06:46:02;10.88;;;6.75;;
29120;SDS011;16191;49.548;8.658;2022-12-07T06:48:29;10.60;;;7.55;;
29120;SDS011;16191;49.548;8.658;2022-12-07T06:50:56;11.95;;;7.45;;
29120;SDS011;16191;49.548;8.658;2022-12-07T06:53:22;10.38;;;7.18;;
29120;SDS011;16191;49.548;8.658;2022-12-07T06:55:49;16.08;;;7.57;;
29120;SDS011;16191;49.548;8.658;2022-12-07T06:58:16;13.60;;;8.18;;
29120;SDS011;16191;49.548;8.658;2022-12-07T07:00:44;11.95;;;6.90;;
29120;SDS011;16191;49.548;8.658;2022-12-07T07:03:11;13.38;;;7.60;;
29120;SDS011;16191;49.548;8.658;2022-12-07T07:05:37;12.98;;;8.57;;
29120;SDS011;16191;49.548;8.658;2022-12-07T07:08:04;14.75;;;8.77;;
29120;SDS011;16191;49.548;8.658;2022-12-07T07:10:48;11.30;;;7.60;;
29120;SDS011;16191;49.548;8.658;2022-12-07T07:13:15;17.85;;;8.65;;
29120;SDS011;16191;49.548;8.658;2022-12-07T07:15:41;10.90;;;7.00;;
29120;SDS011;16191;49.548;8.658;2022-12-07T07:18:08;12.32;;;7.85;;
29120;SDS011;16191;49.548;8.658;2022-12-07T07:20:34;12.13;;;7.68;;
29120;SDS011;16191;49.548;8.658;2022-12-07T07:23:01;14.13;;;8.48;;
29120;SDS011;16191;49.548;8.658;2022-12-07T07:25:28;13.50;;;7.75;;
29120;SDS011;16191;49.548;8.658;2022-12-07T07:27:55;16.00;;;7.65;;
29120;SDS011;16191;49.548;8.658;2022-12-07T07:30:22;13.25;;;8.10;;
29120;SDS011;16191;49.548;8.658;2022-12-07T07:32:49;16.48;;;8.63;;
29120;SDS011;16191;49.548;8.658;2022-12-07T07:35:16;16.80;;;9.75;;
29120;SDS011;16191;49.548;8.658;2022-12-07T07:37:43;13.18;;;8.98;;
29120;SDS011;16191;49.548;8.658;2022-12-07T07:40:10;14.25;;;8.35;;
29120;SDS011;16191;49.548;8.658;2022-12-07T07:42:37;13.38;;;8.48;;
29120;SDS011;16191;49.548;8.658;2022-12-07T07:45:03;14.25;;;9.00;;
29120;SDS011;16191;49.548;8.658;2022-12-07T07:47:30;20.52;;;10.15;;
29120;SDS011;16191;49.548;8.658;2022-12-07T07:49:57;14.07;;;9.63;;
29120;SDS011;16191;49.548;8.658;2022-12-07T07:52:27;13.85;;;9.15;;
29120;SDS011;16191;49.548;8.658;2022-12-07T07:54:54;15.10;;;8.98;;
29120;SDS011;16191;49.548;8.658;2022-12-07T07:57:20;17.13;;;9.85;;
29120;SDS011;16191;49.548;8.658;2022-12-07T07:59:47;14.65;;;8.85;;
29120;SDS011;16191;49.548;8.658;2022-12-07T08:02:18;18.55;;;9.88;;
29120;SDS011;16191;49.548;8.658;2022-12-07T08:04:46;19.85;;;10.13;;
29120;SDS011;16191;49.548;8.658;2022-12-07T08:07:13;16.42;;;10.05;;
29120;SDS011;16191;49.548;8.658;2022-12-07T08:09:41;15.68;;;10.07;;
29120;SDS011;16191;49.548;8.658;2022-12-07T08:12:08;14.75;;;9.30;;
29120;SDS011;16191;49.548;8.658;2022-12-07T08:14:35;14.20;;;9.65;;
29120;SDS011;16191;49.548;8.658;2022-12-07T08:17:02;14.32;;;8.77;;
29120;SDS011;16191;49.548;8.658;2022-12-07T08:19:28;14.18;;;10.00;;
29120;SDS011;16191;49.548;8.658;2022-12-07T08:21:55;19.35;;;9.45;;
29120;SDS011;16191;49.548;8.658;2022-12-07T08:24:22;19.90;;;10.77;;
29120;SDS011;16191;49.548;8.658;2022-12-07T08:26:49;18.17;;;10.77;;
29120;SDS011;16191;49.548;8.658;2022-12-07T08:29:16;14.10;;;9.82;;
29120;SDS011;16191;49.548;8.658;2022-12-07T08:31:43;20.67;;;10.73;;
29120;SDS011;16191;49.548;8.658;2022-12-07T08:34:11;19.88;;;10.10;;
29120;SDS011;16191;49.548;8.658;2022-12-07T08:36:39;16.13;;;10.57;;
29120;SDS011;16191;49.548;8.658;2022-12-07T08:39:05;16.35;;;10.30;;
29120;SDS011;16191;49.548;8.658;2022-12-07T08:41:52;15.93;;;10.07;;
29120;SDS011;16191;49.548;8.658;2022-12-07T08:44:18;16.50;;;10.02;;
29120;SDS011;16191;49.548;8.658;2022-12-07T08:46:46;17.40;;;9.88;;
29120;SDS011;16191;49.548;8.658;2022-12-07T08:49:22;15.07;;;9.32;;
29120;SDS011;16191;49.548;8.658;2022-12-07T08:51:57;17.45;;;9.35;;
29120;SDS011;16191;49.548;8.658;2022-12-07T08:54:23;16.20;;;9.65;;
29120;SDS011;16191;49.548;8.658;2022-12-07T08:56:51;15.88;;;9.85;;
29120;SDS011;16191;49.548;8.658;2022-12-07T08:59:24;14.93;;;9.68;;
29120;SDS011;16191;49.548;8.658;2022-12-07T09:01:50;15.30;;;9.82;;
29120;SDS011;16191;49.548;8.658;2022-12-07T09:04:17;15.55;;;10.15;;
29120;SDS011;16191;49.548;8.658;2022-12-07T09:06:43;17.15;;;9.60;;
29120;SDS011;16191;49.548;8.658;2022-12-07T09:09:10;16.33;;;10.30;;
29120;SDS011;16191;49.548;8.658;2022-12-07T09:11:38;17.60;;;10.68;;
29120;SDS011;16191;49.548;8.658;2022-12-07T09:14:05;18.02;;;11.07;;
29120;SDS011;16191;49.548;8.658;2022-12-07T09:16:32;16.67;;;9.98;;
29120;SDS011;16191;49.548;8.658;2022-12-07T09:18:59;18.27;;;10.27;;
29120;SDS011;16191;49.548;8.658;2022-12-07T09:21:26;16.27;;;10.38;;
29120;SDS011;16191;49.548;8.658;2022-12-07T09:23:53;20.42;;;10.00;;
29120;SDS011;16191;49.548;8.658;2022-12-07T09:26:19;18.17;;;9.82;;
29120;SDS011;16191;49.548;8.658;2022-12-07T09:28:46;16.77;;;9.57;;
29120;SDS011;16191;49.548;8.658;2022-12-07T09:31:12;15.65;;;10.80;;
29120;SDS011;16191;49.548;8.658;2022-12-07T09:33:59;16.98;;;10.13;;
29120;SDS011;16191;49.548;8.658;2022-12-07T09:36:27;16.13;;;10.70;;
29120;SDS011;16191;49.548;8.658;2022-12-07T09:38:55;18.80;;;10.35;;
29120;SDS011;16191;49.548;8.658;2022-12-07T09:41:22;17.42;;;10.73;;
29120;SDS011;16191;49.548;8.658;2022-12-07T09:43:52;19.38;;;10.80;;
29120;SDS011;16191;49.548;8.658;2022-12-07T09:46:20;21.95;;;10.30;;
29120;SDS011;16191;49.548;8.658;2022-12-07T09:48:47;17.25;;;10.82;;
29120;SDS011;16191;49.548;8.658;2022-12-07T09:51:18;19.25;;;10.75;;
29120;SDS011;16191;49.548;8.658;2022-12-07T09:53:50;19.80;;;11.18;;
29120;SDS011;16191;49.548;8.658;2022-12-07T09:56:19;22.65;;;12.15;;
29120;SDS011;16191;49.548;8.658;2022-12-07T09:58:46;20.58;;;11.68;;
29120;SDS011;16191;49.548;8.658;2022-12-07T10:01:16;18.83;;;11.15;;
29120;SDS011;16191;49.548;8.658;2022-12-07T10:03:50;20.25;;;10.98;;
29120;SDS011;16191;49.548;8.658;2022-12-07T10:06:19;22.90;;;10.50;;
29120;SDS011;16191;49.548;8.658;2022-12-07T10:08:46;18.80;;;11.68;;
29120;SDS011;16191;49.548;8.658;2022-12-07T10:11:12;25.48;;;11.85;;
29120;SDS011;16191;49.548;8.658;2022-12-07T10:13:42;21.05;;;12.02;;
29120;SDS011;16191;49.548;8.658;2022-12-07T10:18:50;16.73;;;10.75;;
29120;SDS011;16191;49.548;8.658;2022-12-07T10:21:18;18.40;;;10.57;;
29120;SDS011;16191;49.548;8.658;2022-12-07T10:24:13;19.98;;;11.13;;
29120;SDS011;16191;49.548;8.658;2022-12-07T10:29:14;22.95;;;12.40;;
29120;SDS011;16191;49.548;8.658;2022-12-07T10:31:50;20.65;;;11.73;;
29120;SDS011;16191;49.548;8.658;2022-12-07T10:34:27;17.75;;;10.82;;
29120;SDS011;16191;49.548;8.658;2022-12-07T10:42:20;22.27;;;11.02;;
29120;SDS011;16191;49.548;8.658;2022-12-07T10:45:08;21.15;;;11.95;;
29120;SDS011;16191;49.548;8.658;2022-12-07T10:47:48;19.15;;;11.18;;
29120;SDS011;16191;49.548;8.658;2022-12-07T10:53:11;19.52;;;11.13;;
29120;SDS011;16191;49.548;8.658;2022-12-07T10:59:28;19.67;;;11.80;;
29120;SDS011;16191;49.548;8.658;2022-12-07T11:10:30;17.90;;;10.40;;
29120;SDS011;16191;49.548;8.658;2022-12-07T11:21:45;23.00;;;12.25;;
29120;SDS011;16191;49.548;8.658;2022-12-07T11:24:18;19.70;;;12.10;;
29120;SDS011;16191;49.548;8.658;2022-12-07T11:29:32;23.75;;;12.68;;
29120;SDS011;16191;49.548;8.658;2022-12-07T11:37:56;24.08;;;11.02;;
29120;SDS011;16191;49.548;8.658;2022-12-07T11:40:29;19.35;;;11.75;;
29120;SDS011;16191;49.548;8.658;2022-12-07T11:43:09;20.90;;;12.27;;
29120;SDS011;16191;49.548;8.658;2022-12-07T11:45:44;25.70;;;12.68;;
29120;SDS011;16191;49.548;8.658;2022-12-07T11:48:18;16.08;;;10.88;;
29120;SDS011;16191;49.548;8.658;2022-12-07T11:50:52;19.88;;;12.10;;
29120;SDS011;16191;49.548;8.658;2022-12-07T11:53:24;20.13;;;12.20;;
29120;SDS011;16191;49.548;8.658;2022-12-07T12:06:38;20.50;;;10.88;;
29120;SDS011;16191;49.548;8.658;2022-12-07T12:12:08;20.33;;;11.15;;
29120;SDS011;16191;49.548;8.658;2022-12-07T12:17:56;22.52;;;10.88;;
29120;SDS011;16191;49.548;8.658;2022-12-07T12:20:45;20.08;;;12.20;;
29120;SDS011;16191;49.548;8.658;2022-12-07T12:23:17;18.33;;;10.77;;
29120;SDS011;16191;49.548;8.658;2022-12-07T12:25:55;22.38;;;12.23;;
29120;SDS011;16191;49.548;8.658;2022-12-07T12:31:04;22.00;;;11.85;;
29120;SDS011;16191;49.548;8.658;2022-12-07T12:33:44;22.35;;;12.27;;
29120;SDS011;16191;49.548;8.658;2022-12-07T12:54:20;19.67;;;10.93;;
29120;SDS011;16191;49.548;8.658;2022-12-07T13:02:23;18.65;;;10.43;;
29120;SDS011;16191;49.548;8.658;2022-12-07T13:15:32;21.45;;;11.07;;
29120;SDS011;16191;49.548;8.658;2022-12-07T13:20:59;18.75;;;10.35;;
29120;SDS011;16191;49.548;8.658;2022-12-07T13:28:47;21.75;;;9.73;;
29120;SDS011;16191;49.548;8.658;2022-12-07T13:31:19;16.77;;;9.40;;
29120;SDS011;16191;49.548;8.658;2022-12-07T13:33:53;19.00;;;9.88;;
29120;SDS011;16191;49.548;8.658;2022-12-07T13:36:24;18.60;;;10.55;;
29120;SDS011;16191;49.548;8.658;2022-12-07T13:41:24;17.48;;;10.38;;
29120;SDS011;16191;49.548;8.658;2022-12-07T13:44:14;19.10;;;10.90;;
29120;SDS011;16191;49.548;8.658;2022-12-07T13:49:22;25.25;;;13.35;;
29120;SDS011;16191;49.548;8.658;2022-12-07T13:51:49;26.38;;;13.55;;
29120;SDS011;16191;49.548;8.658;2022-12-07T13:54:16;22.50;;;12.50;;
29120;SDS011;16191;49.548;8.658;2022-12-07T13:56:47;17.63;;;9.10;;
29120;SDS011;16191;49.548;8.658;2022-12-07T13:59:17;18.20;;;8.93;;
29120;SDS011;16191;49.548;8.658;2022-12-07T14:01:47;16.05;;;8.65;;
29120;SDS011;16191;49.548;8.658;2022-12-07T14:04:29;13.20;;;7.82;;
29120;SDS011;16191;49.548;8.658;2022-12-07T14:07:19;13.32;;;7.55;;
29120;SDS011;16191;49.548;8.658;2022-12-07T14:10:01;14.25;;;8.35;;
29120;SDS011;16191;49.548;8.658;2022-12-07T14:12:31;11.85;;;6.45;;
29120;SDS011;16191;49.548;8.658;2022-12-07T14:14:59;14.93;;;5.55;;
29120;SDS011;16191;49.548;8.658;2022-12-07T14:17:28;9.20;;;5.32;;
29120;SDS011;16191;49.548;8.658;2022-12-07T14:19:59;12.48;;;5.22;;
29120;SDS011;16191;49.548;8.658;2022-12-07T14:24:58;8.98;;;5.00;;
29120;SDS011;16191;49.548;8.658;2022-12-07T14:27:48;11.30;;;5.18;;
29120;SDS011;16191;49.548;8.658;2022-12-07T14:30:26;11.63;;;4.70;;
29120;SDS011;16191;49.548;8.658;2022-12-07T14:32:57;14.20;;;5.78;;
29120;SDS011;16191;49.548;8.658;2022-12-07T14:35:26;12.75;;;5.57;;
29120;SDS011;16191;49.548;8.658;2022-12-07T14:37:53;8.30;;;4.68;;
29120;SDS011;16191;49.548;8.658;2022-12-07T14:40:20;9.68;;;4.47;;
29120;SDS011;16191;49.548;8.658;2022-12-07T14:42:50;15.00;;;4.75;;
29120;SDS011;16191;49.548;8.658;2022-12-07T14:45:20;6.90;;;4.30;;
29120;SDS011;16191;49.548;8.658;2022-12-07T14:47:48;8.02;;;4.75;;
29120;SDS011;16191;49.548;8.658;2022-12-07T14:50:36;14.30;;;5.25;;
29120;SDS011;16191;49.548;8.658;2022-12-07T14:53:15;12.82;;;4.68;;
29120;SDS011;16191;49.548;8.658;2022-12-07T14:55:50;15.60;;;5.13;;
29120;SDS011;16191;49.548;8.658;2022-12-07T14:58:17;8.73;;;4.95;;
29120;SDS011;16191;49.548;8.658;2022-12-07T15:00:44;10.93;;;4.95;;
29120;SDS011;16191;49.548;8.658;2022-12-07T15:03:11;7.47;;;4.32;;
29120;SDS011;16191;49.548;8.658;2022-12-07T15:05:40;10.82;;;4.13;;
29120;SDS011;16191;49.548;8.658;2022-12-07T15:08:08;10.05;;;4.50;;
29120;SDS011;16191;49.548;8.658;2022-12-07T15:10:37;11.18;;;5.10;;
29120;SDS011;16191;49.548;8.658;2022-12-07T15:13:06;11.32;;;4.93;;
29120;SDS011;16191;49.548;8.658;2022-12-07T15:15:52;11.95;;;5.30;;
29120;SDS011;16191;49.548;8.658;2022-12-07T15:18:20;14.75;;;6.05;;
29120;SDS011;16191;49.548;8.658;2022-12-07T15:20:49;9.57;;;5.50;;
29120;SDS011;16191;49.548;8.658;2022-12-07T15:23:16;9.50;;;5.72;;
29120;SDS011;16191;49.548;8.658;2022-12-07T15:25:43;12.93;;;6.03;;
29120;SDS011;16191;49.548;8.658;2022-12-07T15:28:10;11.77;;;6.18;;
29120;SDS011;16191;49.548;8.658;2022-12-07T15:30:37;12.50;;;5.68;;
29120;SDS011;16191;49.548;8.658;2022-12-07T15:33:05;13.38;;;5.78;;
29120;SDS011;16191;49.548;8.658;2022-12-07T15:35:31;12.73;;;5.97;;
29120;SDS011;16191;49.548;8.658;2022-12-07T15:37:57;11.35;;;6.13;;
29120;SDS011;16191;49.548;8.658;2022-12-07T15:40:24;10.35;;;5.47;;
29120;SDS011;16191;49.548;8.658;2022-12-07T15:42:51;11.52;;;6.10;;
29120;SDS011;16191;49.548;8.658;2022-12-07T15:45:17;16.58;;;6.45;;
29120;SDS011;16191;49.548;8.658;2022-12-07T15:47:44;10.00;;;5.68;;
29120;SDS011;16191;49.548;8.658;2022-12-07T15:50:31;13.93;;;6.07;;
29120;SDS011;16191;49.548;8.658;2022-12-07T15:52:57;10.40;;;5.05;;
29120;SDS011;16191;49.548;8.658;2022-12-07T15:55:24;12.63;;;5.40;;
29120;SDS011;16191;49.548;8.658;2022-12-07T15:57:50;9.55;;;5.25;;
29120;SDS011;16191;49.548;8.658;2022-12-07T16:00:17;13.27;;;4.82;;
29120;SDS011;16191;49.548;8.658;2022-12-07T16:02:44;10.05;;;5.07;;
29120;SDS011;16191;49.548;8.658;2022-12-07T16:05:11;13.02;;;5.72;;
29120;SDS011;16191;49.548;8.658;2022-12-07T16:07:37;14.15;;;5.60;;
29120;SDS011;16191;49.548;8.658;2022-12-07T16:10:04;17.48;;;5.60;;
29120;SDS011;16191;49.548;8.658;2022-12-07T16:12:31;15.75;;;5.60;;
29120;SDS011;16191;49.548;8.658;2022-12-07T16:14:57;13.23;;;6.05;;
29120;SDS011;16191;49.548;8.658;2022-12-07T16:17:24;11.05;;;5.40;;
29120;SDS011;16191;49.548;8.658;2022-12-07T16:19:51;12.77;;;6.32;;
29120;SDS011;16191;49.548;8.658;2022-12-07T16:22:18;11.45;;;6.13;;
29120;SDS011;16191;49.548;8.658;2022-12-07T16:24:44;10.60;;;6.00;;
29120;SDS011;16191;49.548;8.658;2022-12-07T16:27:11;9.10;;;5.63;;
29120;SDS011;16191;49.548;8.658;2022-12-07T16:29:37;13.50;;;6.32;;
29120;SDS011;16191;49.548;8.658;2022-12-07T16:32:04;15.10;;;5.72;;
29120;SDS011;16191;49.548;8.658;2022-12-07T16:34:31;11.70;;;6.70;;
29120;SDS011;16191;49.548;8.658;2022-12-07T16:36:57;12.48;;;5.78;;
29120;SDS011;16191;49.548;8.658;2022-12-07T16:39:30;12.30;;;6.15;;
29120;SDS011;16191;49.548;8.658;2022-12-07T16:41:56;11.95;;;6.72;;
29120;SDS011;16191;49.548;8.658;2022-12-07T16:44:23;13.77;;;6.80;;
29120;SDS011;16191;49.548;8.658;2022-12-07T16:46:50;13.50;;;7.05;;
29120;SDS011;16191;49.548;8.658;2022-12-07T16:49:16;17.73;;;7.32;;
29120;SDS011;16191;49.548;8.658;2022-12-07T16:51:44;12.73;;;7.05;;
29120;SDS011;16191;49.548;8.658;2022-12-07T16:54:12;12.23;;;6.97;;
29120;SDS011;16191;49.548;8.658;2022-12-07T16:56:39;11.57;;;6.90;;
29120;SDS011;16191;49.548;8.658;2022-12-07T16:59:05;17.55;;;7.45;;
29120;SDS011;16191;49.548;8.658;2022-12-07T17:01:32;17.00;;;7.13;;
29120;SDS011;16191;49.548;8.658;2022-12-07T17:04:00;13.10;;;7.15;;
29120;SDS011;16191;49.548;8.658;2022-12-07T17:06:27;12.90;;;7.40;;
29120;SDS011;16191;49.548;8.658;2022-12-07T17:08:55;13.48;;;7.72;;
29120;SDS011;16191;49.548;8.658;2022-12-07T17:11:24;16.08;;;7.22;;
29120;SDS011;16191;49.548;8.658;2022-12-07T17:13:52;11.18;;;6.78;;
29120;SDS011;16191;49.548;8.658;2022-12-07T17:16:37;14.52;;;7.18;;
29120;SDS011;16191;49.548;8.658;2022-12-07T17:19:04;12.95;;;7.28;;
29120;SDS011;16191;49.548;8.658;2022-12-07T17:21:32;14.40;;;7.45;;
29120;SDS011;16191;49.548;8.658;2022-12-07T17:23:59;17.25;;;9.00;;
29120;SDS011;16191;49.548;8.658;2022-12-07T17:26:26;22.83;;;9.05;;